Time,TemperatureF,DewpointF,PressureIn,WindDirection,WindDirectionDegrees,WindSpeedMPH,WindSpeedGustMPH,Humidity,HourlyPrecipIn,Conditions,Clouds,dailyrainin,SoftwareType,DateUTC
2013-03-24 00:00:00,32.8,29.6,29.93,South,180,4.3,5.4,88,0.00,,,0.00,WUHU216HW,2013-03-24 05:00:00,
2013-03-24 00:05:00,32.8,29.6,29.94,South,180,2.2,5.4,88,0.00,,,0.00,WUHU216HW,2013-03-24 05:05:00,
2013-03-24 00:10:00,32.8,29.6,29.95,South,180,3.1,6.7,88,0.00,,,0.00,WUHU216HW,2013-03-24 05:10:00,
2013-03-24 00:15:00,32.8,29.6,29.95,South,180,1.8,6.7,88,0.00,,,0.00,WUHU216HW,2013-03-24 05:15:00,
2013-03-24 00:20:00,32.8,29.6,29.94,South,180,1.8,6.5,88,0.00,,,0.00,WUHU216HW,2013-03-24 05:20:00,
2013-03-24 00:25:00,32.8,29.6,29.94,South,180,2.7,6.5,88,0.01,,,0.01,WUHU216HW,2013-03-24 05:25:00,
2013-03-24 00:30:00,32.8,29.6,29.94,South,180,0.4,5.8,88,0.01,,,0.01,WUHU216HW,2013-03-24 05:30:00,
2013-03-24 00:35:00,32.8,29.6,29.96,South,180,2.5,4.7,88,0.01,,,0.01,WUHU216HW,2013-03-24 05:35:00,
2013-03-24 00:40:00,32.8,29.6,29.97,South,180,2.9,6.3,88,0.01,,,0.01,WUHU216HW,2013-03-24 05:40:00,
2013-03-24 00:45:00,32.8,29.6,29.98,South,180,2.2,6.3,88,0.01,,,0.01,WUHU216HW,2013-03-24 05:45:00,
2013-03-24 00:50:00,32.8,29.6,29.99,South,180,6.0,6.0,88,0.01,,,0.01,WUHU216HW,2013-03-24 05:50:00,
2013-03-24 00:55:00,32.8,29.4,29.99,South,180,0.9,6.0,87,0.01,,,0.01,WUHU216HW,2013-03-24 05:55:00,
2013-03-24 01:00:00,32.8,29.4,29.98,South,180,2.0,4.7,87,0.01,,,0.01,WUHU216HW,2013-03-24 06:00:00,
2013-03-24 01:05:00,32.9,29.4,29.96,South,180,4.3,5.1,87,0.01,,,0.01,WUHU216HW,2013-03-24 06:05:00,
2013-03-24 01:10:00,32.8,29.4,29.95,South,180,4.7,5.1,87,0.01,,,0.01,WUHU216HW,2013-03-24 06:10:00,
2013-03-24 01:15:00,32.8,29.4,29.94,South,180,2.2,4.9,87,0.01,,,0.01,WUHU216HW,2013-03-24 06:15:00,
2013-03-24 01:20:00,32.8,29.4,29.94,South,180,2.5,5.1,87,0.00,,,0.01,WUHU216HW,2013-03-24 06:20:00,
2013-03-24 01:25:00,32.8,29.4,29.94,South,180,3.4,8.1,87,0.00,,,0.01,WUHU216HW,2013-03-24 06:25:00,
2013-03-24 01:30:00,32.8,29.6,29.94,South,180,2.7,8.1,88,0.00,,,0.01,WUHU216HW,2013-03-24 06:30:00,
2013-03-24 01:35:00,32.8,29.6,29.92,South,180,4.0,6.3,88,0.00,,,0.01,WUHU216HW,2013-03-24 06:35:00,
2013-03-24 01:40:00,32.6,29.4,29.92,South,180,2.0,7.4,88,0.00,,,0.01,WUHU216HW,2013-03-24 06:40:00,
2013-03-24 01:45:00,32.6,29.4,29.93,South,180,1.1,7.4,88,0.00,,,0.01,WUHU216HW,2013-03-24 06:45:00,
2013-03-24 01:50:00,32.6,29.4,29.92,South,180,3.1,6.3,88,0.00,,,0.01,WUHU216HW,2013-03-24 06:50:00,
2013-03-24 01:55:00,32.4,29.3,29.92,South,180,2.9,5.1,88,0.00,,,0.01,WUHU216HW,2013-03-24 06:55:00,
2013-03-24 02:00:00,32.4,29.3,29.92,South,180,3.1,6.3,88,0.00,,,0.01,WUHU216HW,2013-03-24 07:00:00,
2013-03-24 02:05:00,32.4,29.3,29.93,South,180,1.8,6.3,88,0.00,,,0.01,WUHU216HW,2013-03-24 07:05:00,
2013-03-24 02:10:00,32.4,29.3,29.92,South,180,2.0,5.8,88,0.00,,,0.01,WUHU216HW,2013-03-24 07:10:00,
2013-03-24 02:15:00,32.4,29.3,29.93,South,180,2.5,5.8,88,0.00,,,0.01,WUHU216HW,2013-03-24 07:15:00,
2013-03-24 02:20:00,32.4,29.3,29.92,South,180,4.0,9.2,88,0.00,,,0.01,WUHU216HW,2013-03-24 07:20:00,
2013-03-24 02:25:00,32.4,29.3,29.92,South,180,2.2,9.2,88,0.00,,,0.01,WUHU216HW,2013-03-24 07:25:00,
2013-03-24 02:30:00,32.4,29.3,29.91,South,180,0.7,4.7,88,0.00,,,0.01,WUHU216HW,2013-03-24 07:30:00,
2013-03-24 02:35:00,32.2,29.1,29.91,South,180,1.8,5.1,88,0.00,,,0.01,WUHU216HW,2013-03-24 07:35:00,
2013-03-24 02:40:00,32.2,29.1,29.91,South,180,4.7,5.1,88,0.00,,,0.01,WUHU216HW,2013-03-24 07:40:00,
2013-03-24 02:45:00,32.0,29.0,29.90,South,180,2.7,6.9,88,0.00,,,0.01,WUHU216HW,2013-03-24 07:45:00,
2013-03-24 02:50:00,32.0,29.0,29.90,South,180,2.0,6.9,88,0.00,,,0.01,WUHU216HW,2013-03-24 07:50:00,
2013-03-24 02:55:00,32.0,29.0,29.90,South,180,2.0,4.7,88,0.00,,,0.01,WUHU216HW,2013-03-24 07:55:00,
2013-03-24 03:00:00,32.0,29.0,29.90,South,180,1.3,4.7,88,0.00,,,0.01,WUHU216HW,2013-03-24 08:00:00,
2013-03-24 03:05:00,32.0,29.0,29.89,South,180,1.3,4.9,88,0.00,,,0.01,WUHU216HW,2013-03-24 08:05:00,
2013-03-24 03:10:00,32.0,29.0,29.89,South,180,7.8,7.8,88,0.00,,,0.01,WUHU216HW,2013-03-24 08:10:00,
2013-03-24 03:15:00,32.0,29.0,29.88,South,180,3.4,7.8,88,0.00,,,0.01,WUHU216HW,2013-03-24 08:15:00,
2013-03-24 03:20:00,31.9,28.8,29.88,South,180,4.0,7.8,88,0.00,,,0.01,WUHU216HW,2013-03-24 08:20:00,
2013-03-24 03:25:00,31.9,28.8,29.88,South,180,1.8,8.5,88,0.00,,,0.01,WUHU216HW,2013-03-24 08:25:00,
2013-03-24 03:30:00,31.7,28.6,29.88,South,180,3.4,8.5,88,0.00,,,0.01,WUHU216HW,2013-03-24 08:30:00,
2013-03-24 03:35:00,31.7,28.6,29.87,South,180,2.7,7.4,88,0.00,,,0.01,WUHU216HW,2013-03-24 08:35:00,
2013-03-24 03:40:00,31.7,28.9,29.87,South,180,2.7,6.5,89,0.00,,,0.01,WUHU216HW,2013-03-24 08:40:00,
2013-03-24 03:45:00,31.5,28.7,29.88,South,180,2.7,7.8,89,0.00,,,0.01,WUHU216HW,2013-03-24 08:45:00,
2013-03-24 03:50:00,31.5,28.7,29.87,South,180,2.2,7.8,89,0.00,,,0.01,WUHU216HW,2013-03-24 08:50:00,
2013-03-24 03:55:00,31.5,28.7,29.88,South,180,1.6,7.8,89,0.00,,,0.01,WUHU216HW,2013-03-24 08:55:00,
2013-03-24 04:00:00,31.5,28.7,29.88,South,180,4.0,6.0,89,0.00,,,0.01,WUHU216HW,2013-03-24 09:00:00,
2013-03-24 04:05:00,31.3,28.5,29.89,South,180,3.8,8.5,89,0.00,,,0.01,WUHU216HW,2013-03-24 09:05:00,
2013-03-24 04:10:00,31.3,28.5,29.89,South,180,5.4,8.5,89,0.00,,,0.01,WUHU216HW,2013-03-24 09:10:00,
2013-03-24 04:15:00,31.3,28.5,29.88,South,180,0.9,7.2,89,0.00,,,0.01,WUHU216HW,2013-03-24 09:15:00,
2013-03-24 04:20:00,31.3,28.5,29.88,South,180,2.7,7.6,89,0.00,,,0.01,WUHU216HW,2013-03-24 09:20:00,
2013-03-24 04:25:00,31.3,28.5,29.88,South,180,3.4,7.6,89,0.00,,,0.01,WUHU216HW,2013-03-24 09:25:00,
2013-03-24 05:00:00,31.1,28.4,29.90,South,180,3.1,3.1,89,0.00,,,0.01,WUHU216HW,2013-03-24 10:00:00,
2013-03-24 05:05:00,31.0,28.2,29.91,South,180,2.2,6.9,89,0.00,,,0.01,WUHU216HW,2013-03-24 10:05:00,
2013-03-24 05:10:00,30.8,28.0,29.91,South,180,0.7,6.9,89,0.00,,,0.01,WUHU216HW,2013-03-24 10:10:00,
2013-03-24 05:15:00,30.8,28.0,29.91,South,180,2.2,5.4,89,0.00,,,0.01,WUHU216HW,2013-03-24 10:15:00,
2013-03-24 05:20:00,30.6,27.8,29.91,South,180,4.0,6.0,89,0.00,,,0.01,WUHU216HW,2013-03-24 10:20:00,
2013-03-24 05:25:00,30.6,27.8,29.90,South,180,2.9,6.0,89,0.00,,,0.01,WUHU216HW,2013-03-24 10:25:00,
2013-03-24 05:30:00,30.6,27.8,29.90,South,180,2.5,7.6,89,0.00,,,0.01,WUHU216HW,2013-03-24 10:30:00,
2013-03-24 05:35:00,30.4,27.6,29.90,South,180,4.0,7.6,89,0.00,,,0.01,WUHU216HW,2013-03-24 10:35:00,
2013-03-24 05:40:00,30.4,27.6,29.90,South,180,3.1,6.3,89,0.00,,,0.01,WUHU216HW,2013-03-24 10:40:00,
2013-03-24 05:45:00,30.2,27.5,29.90,South,180,5.4,9.4,89,0.00,,,0.01,WUHU216HW,2013-03-24 10:45:00,
2013-03-24 05:50:00,30.2,27.5,29.90,South,180,7.2,9.4,89,0.00,,,0.01,WUHU216HW,2013-03-24 10:50:00,
2013-03-24 05:55:00,30.1,27.0,29.90,South,180,5.4,9.4,88,0.00,,,0.01,WUHU216HW,2013-03-24 10:55:00,
2013-03-24 06:00:00,30.1,27.0,29.90,South,180,1.8,11.9,88,0.00,,,0.01,WUHU216HW,2013-03-24 11:00:00,
2013-03-24 06:05:00,29.9,27.1,29.91,South,180,1.6,11.9,89,0.00,,,0.01,WUHU216HW,2013-03-24 11:05:00,
2013-03-24 06:10:00,29.9,27.1,29.91,South,180,3.4,7.6,89,0.00,,,0.01,WUHU216HW,2013-03-24 11:10:00,
2013-03-24 06:15:00,29.9,27.1,29.91,South,180,2.5,8.9,89,0.00,,,0.01,WUHU216HW,2013-03-24 11:15:00,
2013-03-24 06:20:00,29.9,27.1,29.91,South,180,5.4,8.9,89,0.00,,,0.01,WUHU216HW,2013-03-24 11:20:00,
2013-03-24 06:25:00,29.7,26.9,29.91,South,180,2.5,7.4,89,0.00,,,0.01,WUHU216HW,2013-03-24 11:25:00,
2013-03-24 06:30:00,29.5,26.7,29.91,South,180,3.1,9.2,89,0.00,,,0.01,WUHU216HW,2013-03-24 11:30:00,
2013-03-24 06:35:00,29.3,26.6,29.91,South,180,2.5,9.2,89,0.00,,,0.01,WUHU216HW,2013-03-24 11:35:00,
2013-03-24 06:40:00,29.3,26.6,29.91,South,180,4.7,7.8,89,0.00,,,0.01,WUHU216HW,2013-03-24 11:40:00,
2013-03-24 06:45:00,29.2,26.4,29.92,South,180,4.3,8.7,89,0.00,,,0.01,WUHU216HW,2013-03-24 11:45:00,
2013-03-24 06:50:00,29.2,26.4,29.92,South,180,4.0,8.7,89,0.00,,,0.01,WUHU216HW,2013-03-24 11:50:00,
2013-03-24 06:55:00,29.2,26.4,29.92,South,180,8.5,14.3,89,0.00,,,0.01,WUHU216HW,2013-03-24 11:55:00,
2013-03-24 07:00:00,29.0,26.2,29.92,South,180,3.6,14.3,89,0.00,,,0.01,WUHU216HW,2013-03-24 12:00:00,
2013-03-24 07:05:00,29.0,26.2,29.92,South,180,4.7,8.5,89,0.00,,,0.01,WUHU216HW,2013-03-24 12:05:00,
2013-03-24 07:09:00,28.8,26.0,29.92,South,180,4.3,8.5,89,0.00,,,0.01,WUHU216HW,2013-03-24 12:09:00,
2013-03-24 07:14:00,28.8,26.0,29.93,South,180,1.8,7.8,89,0.00,,,0.01,WUHU216HW,2013-03-24 12:14:00,
2013-03-24 07:19:00,28.8,26.0,29.93,South,180,5.4,11.9,89,0.00,,,0.01,WUHU216HW,2013-03-24 12:19:00,
2013-03-24 07:24:00,28.8,26.0,29.93,South,180,5.4,11.9,89,0.00,,,0.01,WUHU216HW,2013-03-24 12:24:00,
2013-03-24 07:29:00,28.6,25.8,29.94,South,180,4.0,8.7,89,0.00,,,0.01,WUHU216HW,2013-03-24 12:29:00,
2013-03-24 07:34:00,28.6,25.8,29.94,South,180,5.6,8.5,89,0.00,,,0.01,WUHU216HW,2013-03-24 12:34:00,
2013-03-24 07:39:00,28.6,25.8,29.94,South,180,4.9,6.9,89,0.00,,,0.01,WUHU216HW,2013-03-24 12:39:00,
2013-03-24 07:44:00,28.6,25.8,29.94,South,180,4.5,10.1,89,0.00,,,0.01,WUHU216HW,2013-03-24 12:44:00,
2013-03-24 07:49:00,28.8,26.0,29.95,South,180,2.5,10.1,89,0.00,,,0.01,WUHU216HW,2013-03-24 12:49:00,
2013-03-24 07:54:00,28.6,25.8,29.95,South,180,4.7,6.9,89,0.00,,,0.01,WUHU216HW,2013-03-24 12:54:00,
2013-03-24 07:59:00,28.8,26.0,29.95,South,180,4.9,9.4,89,0.00,,,0.01,WUHU216HW,2013-03-24 12:59:00,
2013-03-24 08:04:00,28.8,26.0,29.96,South,180,5.8,9.4,89,0.00,,,0.01,WUHU216HW,2013-03-24 13:04:00,
2013-03-24 08:09:00,28.8,26.0,29.96,South,180,6.0,9.2,89,0.00,,,0.01,WUHU216HW,2013-03-24 13:09:00,
2013-03-24 08:14:00,28.8,26.0,29.96,South,180,3.6,8.9,89,0.00,,,0.01,WUHU216HW,2013-03-24 13:14:00,
2013-03-24 08:19:00,28.8,26.0,29.96,South,180,4.9,7.6,89,0.00,,,0.01,WUHU216HW,2013-03-24 13:19:00,
2013-03-24 08:24:00,28.8,26.0,29.96,South,180,3.4,9.4,89,0.00,,,0.01,WUHU216HW,2013-03-24 13:24:00,
2013-03-24 08:29:00,29.0,26.2,29.97,South,180,7.2,9.4,89,0.00,,,0.01,WUHU216HW,2013-03-24 13:29:00,
2013-03-24 08:34:00,29.0,26.2,29.97,South,180,2.7,9.2,89,0.00,,,0.01,WUHU216HW,2013-03-24 13:34:00,
2013-03-24 08:39:00,29.0,25.9,29.97,South,180,5.1,9.2,88,0.00,,,0.01,WUHU216HW,2013-03-24 13:39:00,
2013-03-24 08:44:00,29.2,26.1,29.97,South,180,2.5,8.5,88,0.00,,,0.01,WUHU216HW,2013-03-24 13:44:00,
2013-03-24 08:49:00,29.2,26.1,29.97,South,180,3.8,6.9,88,0.00,,,0.01,WUHU216HW,2013-03-24 13:49:00,
2013-03-24 08:54:00,29.2,26.1,29.97,South,180,2.7,8.5,88,0.00,,,0.01,WUHU216HW,2013-03-24 13:54:00,
2013-03-24 08:59:00,29.2,26.1,29.97,South,180,4.0,8.9,88,0.00,,,0.01,WUHU216HW,2013-03-24 13:59:00,
2013-03-24 09:04:00,29.2,26.1,29.97,South,180,7.4,8.9,88,0.00,,,0.01,WUHU216HW,2013-03-24 14:04:00,
2013-03-24 09:10:00,29.2,26.1,29.97,South,180,4.0,7.4,88,0.00,,,0.01,WUHU216HW,2013-03-24 14:10:00,
2013-03-24 09:15:00,29.2,26.1,29.98,South,180,1.3,6.7,88,0.00,,,0.01,WUHU216HW,2013-03-24 14:15:00,
2013-03-24 09:19:00,29.2,26.1,29.98,South,180,7.6,7.6,88,0.00,,,0.01,WUHU216HW,2013-03-24 14:19:00,
2013-03-24 09:24:00,29.2,26.1,29.98,South,180,2.7,7.6,88,0.00,,,0.01,WUHU216HW,2013-03-24 14:24:00,
2013-03-24 09:29:00,29.2,26.1,29.98,South,180,3.4,7.6,88,0.00,,,0.01,WUHU216HW,2013-03-24 14:29:00,
2013-03-24 09:34:00,29.2,26.1,29.98,South,180,5.8,8.3,88,0.00,,,0.01,WUHU216HW,2013-03-24 14:34:00,
2013-03-24 09:39:00,29.0,25.9,29.98,South,180,3.8,8.3,88,0.00,,,0.01,WUHU216HW,2013-03-24 14:39:00,
2013-03-24 09:44:00,29.0,25.9,29.98,South,180,4.0,8.7,88,0.00,,,0.01,WUHU216HW,2013-03-24 14:44:00,
2013-03-24 09:49:00,29.2,26.1,29.98,South,180,6.9,8.7,88,0.00,,,0.01,WUHU216HW,2013-03-24 14:49:00,
2013-03-24 09:54:00,29.2,26.1,29.98,South,180,2.7,8.5,88,0.00,,,0.01,WUHU216HW,2013-03-24 14:54:00,
2013-03-24 09:59:00,29.2,25.7,29.98,South,180,3.8,9.6,87,0.00,,,0.01,WUHU216HW,2013-03-24 14:59:00,
2013-03-24 10:04:00,29.2,25.7,29.99,South,180,6.3,9.6,87,0.00,,,0.01,WUHU216HW,2013-03-24 15:04:00,
2013-03-24 10:09:00,29.3,25.9,29.99,South,180,4.7,7.6,87,0.00,,,0.01,WUHU216HW,2013-03-24 15:09:00,
2013-03-24 10:14:00,29.3,25.9,29.99,South,180,3.6,7.6,87,0.00,,,0.01,WUHU216HW,2013-03-24 15:14:00,
2013-03-24 10:19:00,29.5,26.1,29.99,South,180,4.0,8.3,87,0.00,,,0.01,WUHU216HW,2013-03-24 15:19:00,
2013-03-24 10:24:00,29.5,26.1,29.99,South,180,2.0,8.3,87,0.00,,,0.01,WUHU216HW,2013-03-24 15:24:00,
2013-03-24 10:29:00,29.5,26.1,29.99,South,180,5.6,6.9,87,0.00,,,0.01,WUHU216HW,2013-03-24 15:29:00,
2013-03-24 10:34:00,29.5,25.8,29.99,South,180,4.0,6.9,86,0.00,,,0.01,WUHU216HW,2013-03-24 15:34:00,
2013-03-24 10:39:00,29.9,26.2,29.99,South,180,6.9,7.6,86,0.00,,,0.01,WUHU216HW,2013-03-24 15:39:00,
2013-03-24 10:44:00,29.9,26.2,29.99,South,180,7.6,7.8,86,0.00,,,0.01,WUHU216HW,2013-03-24 15:44:00,
2013-03-24 10:49:00,29.9,26.2,29.99,South,180,2.0,8.3,86,0.00,,,0.01,WUHU216HW,2013-03-24 15:49:00,
2013-03-24 10:55:00,29.9,26.2,29.99,South,180,2.5,8.3,86,0.00,,,0.01,WUHU216HW,2013-03-24 15:55:00,
2013-03-24 10:59:00,30.2,26.6,30.00,South,180,7.6,7.6,86,0.00,,,0.01,WUHU216HW,2013-03-24 15:59:00,
2013-03-24 11:05:00,30.1,26.4,29.99,South,180,4.5,8.9,86,0.00,,,0.01,WUHU216HW,2013-03-24 16:05:00,
2013-03-24 11:10:00,30.1,26.4,29.99,South,180,7.2,8.9,86,0.00,,,0.01,WUHU216HW,2013-03-24 16:10:00,
2013-03-24 11:15:00,30.4,26.7,30.00,South,180,2.2,9.4,86,0.00,,,0.01,WUHU216HW,2013-03-24 16:15:00,
2013-03-24 11:20:00,30.4,26.7,30.00,South,180,4.3,9.4,86,0.00,,,0.01,WUHU216HW,2013-03-24 16:20:00,
2013-03-24 11:25:00,30.6,26.6,30.01,South,180,4.7,8.1,85,0.00,,,0.01,WUHU216HW,2013-03-24 16:25:00,
2013-03-24 11:30:00,30.6,26.6,30.01,South,180,4.7,6.9,85,0.00,,,0.01,WUHU216HW,2013-03-24 16:30:00,
2013-03-24 11:35:00,30.4,26.2,30.01,South,180,5.1,8.7,84,0.00,,,0.01,WUHU216HW,2013-03-24 16:35:00,
2013-03-24 11:40:00,30.4,26.5,30.01,South,180,8.1,8.7,85,0.00,,,0.01,WUHU216HW,2013-03-24 16:40:00,
2013-03-24 11:45:00,30.6,26.4,30.01,South,180,4.7,8.1,84,0.00,,,0.01,WUHU216HW,2013-03-24 16:45:00,
2013-03-24 11:49:00,30.6,26.4,30.01,South,180,6.0,8.1,84,0.00,,,0.01,WUHU216HW,2013-03-24 16:49:00,
2013-03-24 11:54:00,30.6,26.1,30.02,South,180,6.7,10.1,83,0.00,,,0.01,WUHU216HW,2013-03-24 16:54:00,
2013-03-24 11:59:00,30.6,26.4,30.02,South,180,6.5,10.1,84,0.00,,,0.01,WUHU216HW,2013-03-24 16:59:00,
2013-03-24 12:05:00,30.8,26.3,30.02,South,180,5.4,7.8,83,0.00,,,0.01,WUHU216HW,2013-03-24 17:05:00,
2013-03-24 12:09:00,31.0,26.5,30.02,South,180,4.7,9.6,83,0.00,,,0.01,WUHU216HW,2013-03-24 17:09:00,
2013-03-24 12:14:00,31.0,26.5,30.02,South,180,4.7,9.6,83,0.00,,,0.01,WUHU216HW,2013-03-24 17:14:00,
2013-03-24 12:19:00,31.1,26.7,30.02,South,180,4.0,7.2,83,0.00,,,0.01,WUHU216HW,2013-03-24 17:19:00,
2013-03-24 12:24:00,31.3,26.8,30.02,South,180,4.5,7.2,83,0.00,,,0.01,WUHU216HW,2013-03-24 17:24:00,
2013-03-24 12:29:00,31.3,26.8,30.02,South,180,4.0,6.0,83,0.00,,,0.01,WUHU216HW,2013-03-24 17:29:00,
2013-03-24 12:34:00,31.0,26.5,30.02,South,180,6.7,6.7,83,0.00,,,0.01,WUHU216HW,2013-03-24 17:34:00,
2013-03-24 12:39:00,31.0,26.5,30.02,South,180,5.4,8.3,83,0.00,,,0.01,WUHU216HW,2013-03-24 17:39:00,
2013-03-24 12:44:00,31.0,26.5,30.02,South,180,4.7,8.5,83,0.00,,,0.01,WUHU216HW,2013-03-24 17:44:00,
2013-03-24 12:49:00,31.0,26.5,30.02,South,180,1.6,8.5,83,0.00,,,0.01,WUHU216HW,2013-03-24 17:49:00,
2013-03-24 12:54:00,31.1,26.7,30.02,South,180,5.4,8.1,83,0.00,,,0.01,WUHU216HW,2013-03-24 17:54:00,
2013-03-24 12:59:00,31.5,27.0,30.02,South,180,3.8,8.3,83,0.00,,,0.01,WUHU216HW,2013-03-24 17:59:00,
2013-03-24 13:04:00,31.5,26.6,30.02,South,180,5.1,9.2,82,0.00,,,0.01,WUHU216HW,2013-03-24 18:04:00,
2013-03-24 13:09:00,31.5,26.6,30.02,South,180,9.2,9.2,82,0.00,,,0.01,WUHU216HW,2013-03-24 18:09:00,
2013-03-24 13:14:00,31.7,26.8,30.02,South,180,8.5,9.2,82,0.00,,,0.01,WUHU216HW,2013-03-24 18:14:00,
2013-03-24 13:20:00,31.5,26.6,30.02,South,180,5.4,9.2,82,0.00,,,0.01,WUHU216HW,2013-03-24 18:20:00,
2013-03-24 13:25:00,31.7,26.8,30.02,South,180,4.3,9.4,82,0.00,,,0.01,WUHU216HW,2013-03-24 18:25:00,
2013-03-24 13:30:00,32.0,27.2,30.02,South,180,5.1,9.4,82,0.00,,,0.01,WUHU216HW,2013-03-24 18:30:00,
2013-03-24 13:35:00,31.9,26.7,30.03,South,180,3.4,8.5,81,0.00,,,0.01,WUHU216HW,2013-03-24 18:35:00,
2013-03-24 13:40:00,32.2,27.4,30.02,South,180,4.7,8.5,82,0.00,,,0.01,WUHU216HW,2013-03-24 18:40:00,
2013-03-24 13:45:00,32.6,27.5,30.02,South,180,4.7,8.9,81,0.00,,,0.01,WUHU216HW,2013-03-24 18:45:00,
2013-03-24 13:50:00,32.4,27.3,30.02,South,180,4.0,8.9,81,0.00,,,0.01,WUHU216HW,2013-03-24 18:50:00,
2013-03-24 13:55:00,32.4,27.3,30.03,South,180,2.5,8.5,81,0.00,,,0.01,WUHU216HW,2013-03-24 18:55:00,
2013-03-24 14:00:00,32.6,27.5,30.02,South,180,3.1,6.9,81,0.00,,,0.01,WUHU216HW,2013-03-24 19:00:00,
2013-03-24 14:05:00,32.9,27.7,30.02,South,180,9.2,9.2,81,0.00,,,0.01,WUHU216HW,2013-03-24 19:05:00,
2013-03-24 14:10:00,32.8,27.5,30.03,South,180,4.0,9.2,81,0.00,,,0.01,WUHU216HW,2013-03-24 19:10:00,
2013-03-24 14:15:00,32.8,27.5,30.03,South,180,4.9,9.2,81,0.00,,,0.01,WUHU216HW,2013-03-24 19:15:00,
2013-03-24 14:20:00,33.1,27.9,30.03,South,180,5.1,7.4,81,0.00,,,0.01,WUHU216HW,2013-03-24 19:20:00,
2013-03-24 14:25:00,33.1,27.6,30.03,South,180,4.9,8.3,80,0.00,,,0.01,WUHU216HW,2013-03-24 19:25:00,
2013-03-24 14:30:00,33.1,27.6,30.03,South,180,6.9,8.3,80,0.00,,,0.01,WUHU216HW,2013-03-24 19:30:00,
2013-03-24 14:35:00,33.3,27.8,30.03,South,180,2.7,7.8,80,0.00,,,0.01,WUHU216HW,2013-03-24 19:35:00,
2013-03-24 14:40:00,33.5,27.9,30.03,South,180,4.5,8.5,80,0.01,,,0.02,WUHU216HW,2013-03-24 19:40:00,
2013-03-24 14:45:00,33.8,28.3,30.03,South,180,10.1,10.1,80,0.01,,,0.02,WUHU216HW,2013-03-24 19:45:00,
2013-03-24 14:50:00,34.0,28.4,30.03,South,180,4.0,10.1,80,0.01,,,0.02,WUHU216HW,2013-03-24 19:50:00,
2013-03-24 14:55:00,34.2,28.3,30.03,South,180,3.1,10.1,79,0.01,,,0.02,WUHU216HW,2013-03-24 19:55:00,
2013-03-24 15:00:00,34.2,28.3,30.03,South,180,4.7,7.4,79,0.01,,,0.02,WUHU216HW,2013-03-24 20:00:00,
2013-03-24 15:05:00,34.0,27.8,30.03,South,180,4.9,8.3,78,0.01,,,0.02,WUHU216HW,2013-03-24 20:05:00,
2013-03-24 15:10:00,33.7,27.5,30.03,South,180,5.8,8.5,78,0.01,,,0.02,WUHU216HW,2013-03-24 20:10:00,
2013-03-24 15:15:00,33.5,27.3,30.03,South,180,3.8,8.5,78,0.01,,,0.02,WUHU216HW,2013-03-24 20:15:00,
2013-03-24 15:20:00,33.5,27.0,30.04,South,180,5.1,6.5,77,0.01,,,0.02,WUHU216HW,2013-03-24 20:20:00,
2013-03-24 15:25:00,33.5,26.6,30.04,South,180,6.3,7.8,76,0.01,,,0.02,WUHU216HW,2013-03-24 20:25:00,
2013-03-24 15:30:00,33.5,27.0,30.04,South,180,9.6,9.6,77,0.01,,,0.02,WUHU216HW,2013-03-24 20:30:00,
2013-03-24 15:35:00,33.1,26.3,30.04,South,180,2.7,9.8,76,0.01,,,0.02,WUHU216HW,2013-03-24 20:35:00,
2013-03-24 15:40:00,32.9,26.5,30.04,South,180,3.4,9.8,77,0.00,,,0.02,WUHU216HW,2013-03-24 20:40:00,
2013-03-24 15:45:00,33.1,26.6,30.04,South,180,5.8,8.5,77,0.00,,,0.02,WUHU216HW,2013-03-24 20:45:00,
2013-03-24 15:50:00,32.9,26.2,30.04,South,180,3.8,10.5,76,0.00,,,0.02,WUHU216HW,2013-03-24 20:50:00,
2013-03-24 15:55:00,32.8,26.0,30.04,South,180,3.8,10.5,76,0.00,,,0.02,WUHU216HW,2013-03-24 20:55:00,
2013-03-24 16:00:00,32.4,25.7,30.04,South,180,2.5,9.4,76,0.00,,,0.02,WUHU216HW,2013-03-24 21:00:00,
2013-03-24 16:05:00,32.4,26.0,30.04,South,180,5.6,9.4,77,0.00,,,0.02,WUHU216HW,2013-03-24 21:05:00,
2013-03-24 16:10:00,32.2,25.8,30.05,South,180,3.6,7.4,77,0.00,,,0.02,WUHU216HW,2013-03-24 21:10:00,
2013-03-24 16:15:00,32.0,25.7,30.05,South,180,1.8,7.4,77,0.00,,,0.02,WUHU216HW,2013-03-24 21:15:00,
2013-03-24 16:20:00,31.9,25.5,30.04,South,180,6.5,7.6,77,0.00,,,0.02,WUHU216HW,2013-03-24 21:20:00,
2013-03-24 16:25:00,31.7,25.3,30.05,South,180,6.7,8.1,77,0.00,,,0.02,WUHU216HW,2013-03-24 21:25:00,
2013-03-24 16:30:00,31.7,25.3,30.05,South,180,6.3,8.1,77,0.00,,,0.02,WUHU216HW,2013-03-24 21:30:00,
2013-03-24 16:35:00,31.3,24.9,30.05,South,180,7.4,8.3,77,0.00,,,0.02,WUHU216HW,2013-03-24 21:35:00,
2013-03-24 16:40:00,31.3,24.9,30.05,South,180,5.4,8.3,77,0.00,,,0.02,WUHU216HW,2013-03-24 21:40:00,
2013-03-24 16:45:00,31.3,24.9,30.05,South,180,4.9,8.7,77,0.00,,,0.02,WUHU216HW,2013-03-24 21:45:00,
2013-03-24 16:50:00,31.1,24.8,30.05,South,180,5.6,8.7,77,0.00,,,0.02,WUHU216HW,2013-03-24 21:50:00,
2013-03-24 16:55:00,31.1,24.8,30.06,South,180,4.7,7.8,77,0.00,,,0.02,WUHU216HW,2013-03-24 21:55:00,
2013-03-24 17:00:00,31.1,24.8,30.06,South,180,5.8,7.4,77,0.00,,,0.02,WUHU216HW,2013-03-24 22:00:00,
2013-03-24 17:05:00,31.1,24.8,30.06,South,180,6.5,7.8,77,0.00,,,0.02,WUHU216HW,2013-03-24 22:05:00,
2013-03-24 17:10:00,31.1,24.5,30.06,South,180,4.7,10.3,76,0.00,,,0.02,WUHU216HW,2013-03-24 22:10:00,
2013-03-24 17:15:00,31.0,24.6,30.06,South,180,4.3,10.3,77,0.00,,,0.02,WUHU216HW,2013-03-24 22:15:00,
2013-03-24 17:20:00,31.1,24.8,30.06,South,180,6.5,8.1,77,0.00,,,0.02,WUHU216HW,2013-03-24 22:20:00,
2013-03-24 17:25:00,31.0,24.6,30.06,South,180,6.9,7.8,77,0.00,,,0.02,WUHU216HW,2013-03-24 22:25:00,
2013-03-24 17:30:00,30.8,24.4,30.07,South,180,5.8,8.5,77,0.00,,,0.02,WUHU216HW,2013-03-24 22:30:00,
2013-03-24 17:35:00,30.6,24.0,30.07,South,180,4.7,9.6,76,0.00,,,0.02,WUHU216HW,2013-03-24 22:35:00,
2013-03-24 17:40:00,30.6,24.0,30.07,South,180,4.3,9.6,76,0.00,,,0.02,WUHU216HW,2013-03-24 22:40:00,
2013-03-24 17:45:00,30.6,24.2,30.07,South,180,3.8,10.7,77,0.00,,,0.02,WUHU216HW,2013-03-24 22:45:00,
2013-03-24 17:50:00,30.6,24.2,30.07,South,180,4.5,10.7,77,0.00,,,0.02,WUHU216HW,2013-03-24 22:50:00,
2013-03-24 17:55:00,30.4,24.0,30.07,South,180,3.4,8.9,77,0.00,,,0.02,WUHU216HW,2013-03-24 22:55:00,
2013-03-24 18:00:00,30.2,23.9,30.08,South,180,4.0,8.9,77,0.00,,,0.02,WUHU216HW,2013-03-24 23:00:00,
2013-03-24 18:05:00,30.2,23.9,30.08,South,180,7.6,8.9,77,0.00,,,0.02,WUHU216HW,2013-03-24 23:05:00,
2013-03-24 18:10:00,30.1,23.7,30.08,South,180,4.3,9.8,77,0.00,,,0.02,WUHU216HW,2013-03-24 23:10:00,
2013-03-24 18:15:00,30.1,23.7,30.08,South,180,3.1,9.8,77,0.00,,,0.02,WUHU216HW,2013-03-24 23:15:00,
2013-03-24 18:20:00,30.2,23.9,30.09,South,180,6.9,7.2,77,0.00,,,0.02,WUHU216HW,2013-03-24 23:20:00,
2013-03-24 18:25:00,30.2,23.9,30.09,South,180,5.4,8.3,77,0.00,,,0.02,WUHU216HW,2013-03-24 23:25:00,
2013-03-24 18:30:00,30.1,23.7,30.09,South,180,5.8,8.3,77,0.00,,,0.02,WUHU216HW,2013-03-24 23:30:00,
2013-03-24 18:35:00,30.1,23.7,30.09,South,180,2.5,8.3,77,0.00,,,0.02,WUHU216HW,2013-03-24 23:35:00,
2013-03-24 18:40:00,29.9,23.5,30.09,South,180,6.7,8.5,77,0.00,,,0.02,WUHU216HW,2013-03-24 23:40:00,
2013-03-24 18:45:00,29.9,23.5,30.10,South,180,5.6,8.5,77,0.00,,,0.02,WUHU216HW,2013-03-24 23:45:00,
2013-03-24 18:50:00,30.1,23.7,30.10,South,180,1.8,7.8,77,0.00,,,0.02,WUHU216HW,2013-03-24 23:50:00,
2013-03-24 18:55:00,30.1,23.7,30.10,South,180,4.3,8.3,77,0.00,,,0.02,WUHU216HW,2013-03-24 23:55:00,
2013-03-24 19:00:00,29.9,23.2,30.10,South,180,2.9,8.3,76,0.00,,,0.02,WUHU216HW,2013-03-25 00:00:00,
2013-03-24 19:05:00,29.9,23.2,30.11,South,180,4.9,6.5,76,0.00,,,0.02,WUHU216HW,2013-03-25 00:05:00,
2013-03-24 19:10:00,29.9,22.9,30.11,South,180,5.1,7.8,75,0.00,,,0.02,WUHU216HW,2013-03-25 00:10:00,
2013-03-24 19:15:00,29.7,22.7,30.11,South,180,6.0,10.7,75,0.00,,,0.02,WUHU216HW,2013-03-25 00:15:00,
2013-03-24 19:20:00,29.3,22.4,30.11,South,180,2.7,10.7,75,0.00,,,0.02,WUHU216HW,2013-03-25 00:20:00,
2013-03-24 19:25:00,29.2,22.5,30.11,South,180,2.7,7.6,76,0.00,,,0.02,WUHU216HW,2013-03-25 00:25:00,
2013-03-24 19:30:00,29.0,22.1,30.12,South,180,3.8,7.8,75,0.00,,,0.02,WUHU216HW,2013-03-25 00:30:00,
2013-03-24 19:35:00,28.8,22.1,30.12,South,180,5.1,7.8,76,0.00,,,0.02,WUHU216HW,2013-03-25 00:35:00,
2013-03-24 19:40:00,28.6,22.0,30.12,South,180,6.5,7.6,76,0.00,,,0.02,WUHU216HW,2013-03-25 00:40:00,
2013-03-24 19:45:00,28.4,21.8,30.12,South,180,4.7,7.6,76,0.00,,,0.02,WUHU216HW,2013-03-25 00:45:00,
2013-03-24 19:50:00,28.4,21.5,30.12,South,180,2.9,7.6,75,0.00,,,0.02,WUHU216HW,2013-03-25 00:50:00,
2013-03-24 19:55:00,28.3,21.3,30.12,South,180,4.7,7.6,75,0.00,,,0.02,WUHU216HW,2013-03-25 00:55:00,
2013-03-24 20:00:00,28.1,21.2,30.12,South,180,3.6,4.7,75,0.00,,,0.02,WUHU216HW,2013-03-25 01:00:00,
2013-03-24 20:05:00,28.1,21.2,30.12,South,180,3.6,3.6,75,0.00,,,0.02,WUHU216HW,2013-03-25 01:05:00,
2013-03-24 21:00:00,27.2,20.9,30.13,South,180,2.5,2.5,77,0.00,,,0.02,WUHU216HW,2013-03-25 02:00:00,
2013-03-24 21:05:00,27.2,20.9,30.13,South,180,2.5,2.5,77,0.00,,,0.02,WUHU216HW,2013-03-25 02:05:00,
2013-03-24 22:00:00,26.8,20.5,30.15,South,180,3.4,3.4,77,0.00,,,0.02,WUHU216HW,2013-03-25 03:00:00,
2013-03-24 22:05:00,26.8,20.5,30.15,South,180,3.4,3.4,77,0.00,,,0.02,WUHU216HW,2013-03-25 03:05:00,
2013-03-24 23:00:00,25.7,19.5,30.15,South,180,2.0,2.0,77,0.00,,,0.02,WUHU216HW,2013-03-25 04:00:00,
2013-03-24 23:05:00,25.7,19.5,30.15,South,180,2.0,2.0,77,0.00,,,0.02,WUHU216HW,2013-03-25 04:05:00,